Time;durP1;ratioP1;P1;durP2;ratioP2;P2;SDS_P1;SDS_P2;PMS_P1;PMS_P2;Temp;Humidity;BMP_temperature;BMP_pressure;BME280_temperature;BME280_humidity;BME280_pressure;Samples;Min_cycle;Max_cycle;Signal;HPM_P1;HPM_P2
2021/03/24 00:00:58;;;;;;;54.45;27.58;;;3.80;92.10;;;;;;5030302;28;20845;-77
2021/03/24 00:03:23;;;;;;;60.40;31.33;;;3.80;92.20;;;;;;5017582;28;20464;-77
2021/03/24 00:05:50;;;;;;;68.70;32.38;;;3.80;92.20;;;;;;5018452;28;20066;-77
2021/03/24 00:08:16;;;;;;;68.60;34.65;;;3.70;92.10;;;;;;5021845;28;20037;-77
2021/03/24 00:10:42;;;;;;;58.67;31.63;;;3.50;92.40;;;;;;5036365;28;20035;-77
2021/03/24 00:13:08;;;;;;;57.55;30.17;;;3.30;92.90;;;;;;5051684;28;20034;-77
2021/03/24 00:15:34;;;;;;;72.53;36.40;;;3.40;93.50;;;;;;5023069;28;20037;-77
2021/03/24 00:17:59;;;;;;;77.63;34.17;;;3.40;93.20;;;;;;5030852;28;20038;-76
2021/03/24 00:20:28;;;;;;;67.93;33.15;;;3.50;93.20;;;;;;5021259;28;20025;-77
2021/03/24 00:22:54;;;;;;;69.03;33.25;;;3.60;92.60;;;;;;5026109;28;20075;-77
2021/03/24 00:25:20;;;;;;;64.78;32.53;;;3.50;92.70;;;;;;5038358;28;20422;-77
2021/03/24 00:27:46;;;;;;;67.68;33.65;;;3.40;92.70;;;;;;5035754;28;20552;-77
2021/03/24 00:30:13;;;;;;;74.68;34.50;;;3.50;93.00;;;;;;5033294;28;20105;-77
2021/03/24 00:32:38;;;;;;;65.72;33.05;;;3.40;93.20;;;;;;5030804;28;20033;-76
2021/03/24 00:35:05;;;;;;;65.95;34.08;;;3.40;93.20;;;;;;5034449;28;20500;-77
2021/03/24 00:37:31;;;;;;;69.60;35.47;;;3.40;92.90;;;;;;5028976;28;20499;-77
2021/03/24 00:39:56;;;;;;;69.30;32.67;;;3.40;93.20;;;;;;5035290;28;20257;-77
2021/03/24 00:42:22;;;;;;;62.50;31.80;;;3.60;93.00;;;;;;5038690;28;20138;-77
2021/03/24 00:44:47;;;;;;;61.83;31.35;;;3.50;93.10;;;;;;5034444;28;20135;-77
2021/03/24 00:47:13;;;;;;;77.57;36.35;;;3.60;93.30;;;;;;5052023;28;20036;-76
2021/03/24 00:49:38;;;;;;;67.47;32.03;;;3.40;93.30;;;;;;5034798;28;20052;-76
2021/03/24 00:52:04;;;;;;;72.70;35.20;;;3.40;93.20;;;;;;5017177;28;20072;-76
2021/03/24 00:54:30;;;;;;;58.42;31.98;;;3.30;93.30;;;;;;5019172;28;20029;-76
2021/03/24 00:56:55;;;;;;;69.05;34.55;;;3.30;93.40;;;;;;5021670;28;20151;-76
2021/03/24 00:59:21;;;;;;;71.13;32.30;;;3.30;93.40;;;;;;5025282;28;20032;-76
2021/03/24 01:01:46;;;;;;;55.92;27.65;;;3.40;93.40;;;;;;5050907;28;20063;-76
2021/03/24 01:04:12;;;;;;;71.53;32.97;;;3.30;93.40;;;;;;5055462;28;20037;-76
2021/03/24 01:06:38;;;;;;;59.30;33.38;;;3.30;93.50;;;;;;5032144;28;20112;-77
2021/03/24 01:09:08;;;;;;;62.55;32.13;;;3.40;93.40;;;;;;5029074;28;20041;-76
2021/03/24 01:11:34;;;;;;;67.35;35.08;;;3.30;93.40;;;;;;5020233;28;20025;-76
2021/03/24 01:14:00;;;;;;;63.97;33.75;;;3.10;93.40;;;;;;5018998;28;20051;-76
2021/03/24 01:16:25;;;;;;;61.25;31.13;;;3.00;93.70;;;;;;5029945;28;20460;-76
2021/03/24 01:18:51;;;;;;;70.60;33.60;;;2.90;93.80;;;;;;5045003;28;20037;-76
2021/03/24 01:21:16;;;;;;;63.78;32.90;;;3.00;94.40;;;;;;5035737;28;20471;-76
2021/03/24 01:23:42;;;;;;;59.03;28.20;;;3.00;93.90;;;;;;5009985;28;20029;-76
2021/03/24 01:26:07;;;;;;;68.00;32.15;;;3.00;93.90;;;;;;5031607;28;20186;-76
2021/03/24 01:28:33;;;;;;;60.95;30.50;;;3.10;93.90;;;;;;5019988;28;20025;-76
2021/03/24 01:30:59;;;;;;;59.67;30.27;;;3.00;94.00;;;;;;5051839;28;20080;-76
2021/03/24 01:33:25;;;;;;;57.60;29.15;;;3.00;93.80;;;;;;5052239;28;20032;-76
2021/03/24 01:35:51;;;;;;;58.97;31.27;;;3.10;93.90;;;;;;5013569;28;20044;-76
2021/03/24 01:38:16;;;;;;;60.40;31.55;;;3.20;93.70;;;;;;5020226;28;20032;-76
2021/03/24 01:40:47;;;;;;;64.95;30.77;;;3.00;93.90;;;;;;5033737;28;20504;-76
2021/03/24 01:43:30;;;;;;;63.60;31.20;;;3.10;94.20;;;;;;5015704;28;20273;-76
2021/03/24 01:46:17;;;;;;;57.90;28.67;;;3.10;94.10;;;;;;5032090;28;20370;-76
2021/03/24 01:49:02;;;;;;;50.53;24.85;;;3.30;93.90;;;;;;5048131;28;20032;-76
2021/03/24 01:51:31;;;;;;;53.28;27.05;;;3.70;93.40;;;;;;5029390;28;20044;-76
2021/03/24 01:53:56;;;;;;;58.75;28.88;;;3.50;92.90;;;;;;5018176;28;20090;-76
2021/03/24 01:56:22;;;;;;;58.92;29.00;;;3.40;93.20;;;;;;5030251;28;20040;-76
2021/03/24 01:58:47;;;;;;;51.95;27.77;;;3.40;93.60;;;;;;5016025;28;20032;-76
2021/03/24 02:01:18;;;;;;;46.78;23.10;;;3.40;93.70;;;;;;5030381;28;20115;-76
2021/03/24 02:03:43;;;;;;;51.30;26.65;;;3.40;93.70;;;;;;5034134;28;20044;-76
2021/03/24 02:06:34;;;;;;;51.05;26.55;;;3.50;93.40;;;;;;5018378;28;20042;-76
2021/03/24 02:09:10;;;;;;;60.65;27.42;;;3.50;93.50;;;;;;5031544;28;20444;-76
2021/03/24 02:11:48;;;;;;;64.20;28.80;;;3.40;93.80;;;;;;5035061;28;20055;-76
2021/03/24 02:14:22;;;;;;;61.33;29.33;;;3.30;94.10;;;;;;5034007;28;20028;-76
2021/03/24 02:16:48;;;;;;;56.65;26.98;;;3.30;93.70;;;;;;5017431;28;20044;-76
2021/03/24 02:19:31;;;;;;;62.38;28.65;;;3.20;93.90;;;;;;5026403;28;20025;-76
2021/03/24 02:21:58;;;;;;;57.75;29.42;;;3.00;94.40;;;;;;5047747;28;20339;-76
2021/03/24 02:24:27;;;;;;;59.03;28.58;;;3.00;94.30;;;;;;5023330;28;20463;-76
2021/03/24 02:27:38;;;;;;;57.13;25.52;;;3.00;94.40;;;;;;5034527;28;20045;-76
2021/03/24 02:30:24;;;;;;;63.08;28.05;;;3.10;94.30;;;;;;5013232;28;20049;-76
2021/03/24 02:32:57;;;;;;;60.25;27.77;;;3.00;94.20;;;;;;4997614;28;20207;-76
2021/03/24 02:35:30;;;;;;;43.35;21.67;;;3.10;94.40;;;;;;5026133;28;20041;-76
2021/03/24 02:37:56;;;;;;;57.33;26.67;;;3.30;93.90;;;;;;5006247;28;20205;-76
2021/03/24 02:40:21;;;;;;;59.03;28.55;;;3.30;93.70;;;;;;5029181;28;20036;-76
2021/03/24 02:42:48;;;;;;;52.60;24.38;;;3.10;94.30;;;;;;5045679;28;20036;-76
2021/03/24 02:45:15;;;;;;;50.88;25.48;;;3.30;93.90;;;;;;5014815;28;20412;-76
2021/03/24 02:47:41;;;;;;;60.63;24.95;;;3.10;94.00;;;;;;5026119;28;20029;-76
2021/03/24 02:50:08;;;;;;;54.00;24.85;;;3.20;94.00;;;;;;5026455;28;20091;-76
2021/03/24 02:52:33;;;;;;;47.00;24.58;;;3.30;93.80;;;;;;5027513;28;20477;-76
2021/03/24 02:54:59;;;;;;;46.15;22.33;;;3.30;93.70;;;;;;5039458;28;20025;-76
2021/03/24 02:57:24;;;;;;;50.90;26.17;;;3.40;93.60;;;;;;5017239;28;20066;-76
2021/03/24 02:59:51;;;;;;;48.53;24.50;;;3.40;93.50;;;;;;5016096;28;20045;-76
2021/03/24 03:02:18;;;;;;;45.50;22.85;;;3.40;93.40;;;;;;5029699;28;20127;-76
2021/03/24 03:04:48;;;;;;;56.05;25.23;;;3.30;93.40;;;;;;5015991;28;20029;-76
2021/03/24 03:07:18;;;;;;;42.67;22.50;;;3.10;93.70;;;;;;5035394;28;20123;-76
2021/03/24 03:09:52;;;;;;;54.88;24.95;;;3.20;93.80;;;;;;5030134;28;20032;-76
2021/03/24 03:12:35;;;;;;;53.08;25.88;;;3.10;93.80;;;;;;5014439;28;20396;-76
2021/03/24 03:15:02;;;;;;;55.58;25.75;;;2.80;94.40;;;;;;5030541;28;20413;-76
2021/03/24 03:18:07;;;;;;;50.95;24.90;;;2.90;94.20;;;;;;5032794;28;20036;-76
2021/03/24 03:20:34;;;;;;;54.13;24.35;;;3.00;94.00;;;;;;4951792;28;20037;-76
2021/03/24 03:23:06;;;;;;;51.38;25.42;;;3.00;94.10;;;;;;5004431;28;20086;-75
2021/03/24 03:25:38;;;;;;;56.13;25.25;;;2.90;94.10;;;;;;5017111;28;20504;-76
2021/03/24 03:28:06;;;;;;;53.60;24.45;;;3.00;94.00;;;;;;5032782;28;20040;-75
2021/03/24 03:30:33;;;;;;;49.92;26.52;;;3.00;93.70;;;;;;5016694;28;20083;-75
2021/03/24 03:33:00;;;;;;;56.05;25.00;;;2.90;94.10;;;;;;5016614;28;20056;-76
2021/03/24 03:35:26;;;;;;;50.42;25.98;;;2.70;94.40;;;;;;5049499;28;20086;-76
2021/03/24 03:37:53;;;;;;;50.60;25.35;;;2.60;94.50;;;;;;5015717;28;20056;-75
2021/03/24 03:40:19;;;;;;;52.10;24.58;;;2.70;94.50;;;;;;5032992;28;20029;-75
2021/03/24 03:42:48;;;;;;;46.22;22.27;;;2.70;94.50;;;;;;5016022;28;20109;-75
2021/03/24 03:45:14;;;;;;;51.35;24.95;;;2.60;94.50;;;;;;5028849;28;20034;-76
2021/03/24 03:47:42;;;;;;;53.70;25.20;;;2.60;94.60;;;;;;5015958;28;20381;-76
2021/03/24 03:50:09;;;;;;;57.03;24.45;;;2.60;94.60;;;;;;5026341;28;20034;-75
2021/03/24 03:52:37;;;;;;;56.60;25.45;;;2.70;94.30;;;;;;5031633;28;20074;-75
2021/03/24 03:55:15;;;;;;;49.47;22.67;;;2.80;94.30;;;;;;5044725;28;20029;-75
2021/03/24 03:57:54;;;;;;;43.85;21.30;;;2.80;94.40;;;;;;5045747;28;20495;-76
2021/03/24 04:00:41;;;;;;;47.92;24.25;;;2.80;94.30;;;;;;5014048;28;20036;-76
2021/03/24 04:03:11;;;;;;;39.35;19.95;;;2.80;94.30;;;;;;5061349;28;20041;-76
2021/03/24 04:05:42;;;;;;;38.38;19.33;;;3.00;94.20;;;;;;5035632;28;20504;-76
2021/03/24 04:08:14;;;;;;;46.28;22.23;;;3.20;93.70;;;;;;5036069;28;20405;-76
2021/03/24 04:10:41;;;;;;;52.70;23.60;;;3.00;93.90;;;;;;5042382;28;20369;-76
2021/03/24 04:13:07;;;;;;;43.60;22.67;;;2.90;94.00;;;;;;5012979;28;20038;-75
2021/03/24 04:15:33;;;;;;;41.08;21.48;;;2.90;94.30;;;;;;5015145;28;20082;-75
2021/03/24 04:18:07;;;;;;;48.97;23.75;;;2.90;94.20;;;;;;5029752;28;20059;-76
2021/03/24 04:20:33;;;;;;;47.83;22.95;;;3.00;93.90;;;;;;5015706;28;20435;-76
2021/03/24 04:22:59;;;;;;;50.85;22.30;;;3.00;93.80;;;;;;5029508;28;20036;-76
2021/03/24 04:25:49;;;;;;;41.90;22.10;;;3.00;94.00;;;;;;5017186;28;20028;-75
2021/03/24 04:28:16;;;;;;;39.25;18.50;;;3.00;93.80;;;;;;5030371;28;20036;-75
2021/03/24 04:30:49;;;;;;;45.45;19.58;;;2.90;93.80;;;;;;5032712;28;20056;-75
2021/03/24 04:33:15;;;;;;;49.33;22.90;;;2.90;93.80;;;;;;5024236;28;20029;-75
2021/03/24 04:35:41;;;;;;;39.47;18.83;;;2.90;94.00;;;;;;5030741;28;20040;-75
2021/03/24 04:38:11;;;;;;;48.20;24.25;;;3.00;93.80;;;;;;5026917;28;20124;-75
2021/03/24 04:40:50;;;;;;;40.05;19.70;;;2.80;93.90;;;;;;5021076;28;20416;-76
2021/03/24 04:43:21;;;;;;;43.90;21.65;;;2.80;94.20;;;;;;5032818;28;20025;-75
2021/03/24 04:45:48;;;;;;;40.17;20.83;;;2.70;94.30;;;;;;5024947;28;20122;-76
2021/03/24 04:48:19;;;;;;;36.55;18.15;;;2.80;94.20;;;;;;5030926;28;20060;-75
2021/03/24 04:51:04;;;;;;;41.30;21.42;;;2.80;94.10;;;;;;5015451;28;20136;-75
2021/03/24 04:53:31;;;;;;;48.15;23.52;;;2.90;93.90;;;;;;5032003;28;20473;-75
2021/03/24 04:55:57;;;;;;;46.70;21.75;;;2.80;94.10;;;;;;5035036;28;20307;-75
2021/03/24 04:58:42;;;;;;;46.67;21.83;;;2.80;94.00;;;;;;5035292;28;20043;-75
2021/03/24 05:01:21;;;;;;;52.33;23.45;;;2.70;94.00;;;;;;5048268;28;20914;-75
2021/03/24 05:03:46;;;;;;;47.40;24.02;;;2.60;94.20;;;;;;5034292;28;20396;-75
2021/03/24 05:06:29;;;;;;;46.17;19.95;;;2.60;94.40;;;;;;5023292;28;20429;-75
2021/03/24 05:08:55;;;;;;;43.72;21.35;;;2.60;94.40;;;;;;5016356;28;20072;-76
2021/03/24 05:11:34;;;;;;;45.25;20.80;;;2.80;94.00;;;;;;5034385;28;20500;-75
2021/03/24 05:14:06;;;;;;;44.58;22.27;;;2.80;94.00;;;;;;5051765;28;20032;-76
2021/03/24 05:16:36;;;;;;;42.42;21.25;;;2.80;94.00;;;;;;5051387;28;20307;-75
2021/03/24 05:19:02;;;;;;;43.63;23.42;;;2.80;94.10;;;;;;5042027;28;20053;-75
2021/03/24 05:21:45;;;;;;;47.55;22.35;;;2.60;94.20;;;;;;5026532;28;20099;-75
2021/03/24 05:24:12;;;;;;;43.17;21.05;;;2.70;94.20;;;;;;5029653;28;20112;-75
2021/03/24 05:26:39;;;;;;;44.83;21.52;;;2.70;94.10;;;;;;5030567;28;20076;-75
2021/03/24 05:29:08;;;;;;;52.28;24.50;;;2.70;94.30;;;;;;5032239;28;20045;-75
2021/03/24 05:31:35;;;;;;;52.03;25.85;;;2.50;94.60;;;;;;5029475;28;20128;-75
2021/03/24 05:34:03;;;;;;;51.10;23.70;;;2.60;94.50;;;;;;5035110;28;20788;-75
2021/03/24 05:36:39;;;;;;;53.28;23.02;;;2.40;94.70;;;;;;5020859;28;20044;-76
2021/03/24 05:39:30;;;;;;;52.05;23.83;;;2.60;94.50;;;;;;5029051;28;20520;-76
2021/03/24 05:42:23;;;;;;;47.47;23.95;;;2.40;94.90;;;;;;5033345;28;20059;-76
2021/03/24 05:45:26;;;;;;;50.67;23.85;;;2.30;95.10;;;;;;5051517;28;20487;-75
2021/03/24 05:48:05;;;;;;;49.17;21.17;;;2.40;95.00;;;;;;5047820;28;20039;-75
2021/03/24 05:50:37;;;;;;;53.20;23.63;;;2.50;95.00;;;;;;5026119;28;20068;-75
2021/03/24 05:53:29;;;;;;;50.83;23.85;;;2.60;94.70;;;;;;5033017;28;20544;-76
2021/03/24 05:55:59;;;;;;;40.97;18.25;;;2.50;94.70;;;;;;5043782;28;20037;-75
2021/03/24 05:58:47;;;;;;;39.92;19.67;;;2.50;94.80;;;;;;5032566;28;20029;-76
2021/03/24 06:01:16;;;;;;;43.97;21.75;;;2.90;94.20;;;;;;5051834;28;20547;-76
2021/03/24 06:03:52;;;;;;;50.63;22.08;;;2.80;94.40;;;;;;5006701;28;20029;-76
2021/03/24 06:06:26;;;;;;;50.40;22.35;;;2.80;94.40;;;;;;5046903;28;20029;-76
2021/03/24 06:09:21;;;;;;;50.90;23.60;;;2.80;94.40;;;;;;5045809;28;20071;-76
2021/03/24 06:12:17;;;;;;;44.15;18.45;;;2.70;94.60;;;;;;5050444;28;20032;-76
2021/03/24 06:15:21;;;;;;;51.42;23.67;;;2.90;94.30;;;;;;5046776;28;20033;-75
2021/03/24 06:18:21;;;;;;;60.75;24.00;;;2.90;94.70;;;;;;5011834;28;20049;-76
2021/03/24 06:20:57;;;;;;;75.85;36.13;;;2.80;94.90;;;;;;5047026;28;21088;-77
2021/03/24 06:23:28;;;;;;;61.08;24.75;;;2.80;94.80;;;;;;5040486;28;20111;-76
2021/03/24 06:26:29;;;;;;;53.55;24.27;;;2.80;95.20;;;;;;5041704;28;20041;-76
2021/03/24 06:29:16;;;;;;;51.33;22.45;;;3.00;94.60;;;;;;5048933;28;20407;-76
2021/03/24 06:31:48;;;;;;;43.78;20.48;;;3.10;94.80;;;;;;5046281;28;20047;-75
2021/03/24 06:34:36;;;;;;;55.55;23.88;;;3.20;94.60;;;;;;5043493;28;20033;-75
2021/03/24 06:37:22;;;;;;;45.88;22.90;;;3.30;94.50;;;;;;5013469;28;20037;-77
2021/03/24 06:39:57;;;;;;;33.93;17.67;;;3.30;94.70;;;;;;5038964;28;20075;-76
2021/03/24 06:42:52;;;;;;;41.27;19.80;;;3.40;94.90;;;;;;5048072;28;20301;-76
2021/03/24 06:45:23;;;;;;;34.85;18.23;;;3.60;94.50;;;;;;5030580;28;20036;-76
2021/03/24 06:48:07;;;;;;;39.33;18.88;;;3.70;94.20;;;;;;5047492;28;20477;-76
2021/03/24 06:50:54;;;;;;;39.63;19.70;;;3.80;94.30;;;;;;5049401;28;20025;-77
2021/03/24 06:54:01;;;;;;;47.95;21.73;;;3.90;94.00;;;;;;5044105;28;20090;-77
2021/03/24 06:56:45;;;;;;;48.85;22.30;;;4.00;94.50;;;;;;5046811;28;20024;-77
2021/03/24 06:59:35;;;;;;;43.97;23.30;;;3.90;94.60;;;;;;5053537;28;20063;-77
2021/03/24 07:02:21;;;;;;;38.80;19.40;;;4.10;94.60;;;;;;5047268;28;20060;-76
2021/03/24 07:04:55;;;;;;;49.92;24.17;;;4.30;94.40;;;;;;5045948;28;20029;-77
2021/03/24 07:07:42;;;;;;;39.38;19.65;;;4.30;94.50;;;;;;5031411;28;20032;-77
2021/03/24 07:10:31;;;;;;;47.53;23.27;;;4.50;94.90;;;;;;5046860;28;20115;-77
2021/03/24 07:13:10;;;;;;;45.03;20.73;;;4.50;94.90;;;;;;5049196;28;20488;-77
2021/03/24 07:15:37;;;;;;;40.65;20.88;;;4.70;94.70;;;;;;5023747;28;20108;-77
2021/03/24 07:18:34;;;;;;;45.03;22.52;;;4.80;94.60;;;;;;5049452;28;20033;-77
2021/03/24 07:21:28;;;;;;;52.78;23.92;;;5.10;94.00;;;;;;5028985;28;20040;-77
2021/03/24 07:24:22;;;;;;;52.38;22.63;;;5.30;93.80;;;;;;5030671;28;20032;-77
2021/03/24 07:27:03;;;;;;;42.55;22.15;;;5.50;93.70;;;;;;5026550;28;20045;-77
2021/03/24 07:29:33;;;;;;;42.28;20.17;;;5.70;93.90;;;;;;5047758;28;20071;-77
2021/03/24 07:32:10;;;;;;;46.78;22.75;;;5.90;93.30;;;;;;5033812;28;20059;-77
2021/03/24 07:34:51;;;;;;;42.35;19.67;;;6.00;93.30;;;;;;5024041;28;20026;-77
2021/03/24 07:37:55;;;;;;;40.55;19.70;;;6.10;92.90;;;;;;5026540;28;20820;-77
2021/03/24 07:40:42;;;;;;;42.65;19.52;;;6.40;93.30;;;;;;5049955;28;20151;-77
2021/03/24 07:43:29;;;;;;;38.92;19.67;;;6.60;92.40;;;;;;5048672;28;20041;-77
2021/03/24 07:46:13;;;;;;;37.95;19.65;;;6.90;92.60;;;;;;5024183;28;20129;-77
2021/03/24 07:49:23;;;;;;;40.72;20.10;;;7.00;92.10;;;;;;5046130;28;20053;-77
2021/03/24 07:51:58;;;;;;;35.92;18.52;;;7.30;92.40;;;;;;4976144;28;20391;-77
2021/03/24 07:54:40;;;;;;;36.30;19.13;;;7.60;91.60;;;;;;5021546;28;20388;-77
2021/03/24 07:57:25;;;;;;;43.35;20.67;;;7.70;90.90;;;;;;5022308;28;20449;-77
2021/03/24 08:00:01;;;;;;;42.47;20.60;;;7.70;91.40;;;;;;5044135;28;20044;-77
2021/03/24 08:02:53;;;;;;;41.22;19.40;;;8.10;90.70;;;;;;4998249;28;20037;-77
2021/03/24 08:05:43;;;;;;;39.63;20.65;;;8.60;90.60;;;;;;5058982;28;20024;-77
2021/03/24 08:08:20;;;;;;;33.17;18.67;;;8.80;89.70;;;;;;5043986;28;20037;-76
2021/03/24 08:10:52;;;;;;;37.60;18.90;;;8.70;88.80;;;;;;5036044;28;20461;-77
2021/03/24 08:13:34;;;;;;;38.58;20.15;;;8.90;90.00;;;;;;5013415;28;20033;-77
2021/03/24 08:16:25;;;;;;;40.92;20.85;;;9.10;89.00;;;;;;5049503;28;20063;-77
2021/03/24 08:19:01;;;;;;;46.53;23.10;;;9.20;88.20;;;;;;5038531;28;20030;-77
2021/03/24 08:21:57;;;;;;;35.60;19.45;;;9.50;88.00;;;;;;5048564;28;20044;-77
2021/03/24 08:24:44;;;;;;;41.42;17.45;;;9.60;86.90;;;;;;5048641;28;20107;-77
2021/03/24 08:27:14;;;;;;;43.92;19.73;;;9.90;85.90;;;;;;5052243;28;20049;-77
2021/03/24 08:29:53;;;;;;;39.13;18.95;;;9.80;85.30;;;;;;5014803;28;20033;-77
2021/03/24 08:32:26;;;;;;;39.58;18.63;;;10.10;83.30;;;;;;5035632;28;20267;-77
2021/03/24 08:35:28;;;;;;;38.72;18.63;;;10.20;83.10;;;;;;5047391;28;20037;-77
2021/03/24 08:38:22;;;;;;;37.92;18.33;;;10.70;82.20;;;;;;5044665;28;20037;-77
2021/03/24 08:41:29;;;;;;;42.70;20.88;;;10.80;81.00;;;;;;5052555;28;20048;-77
2021/03/24 08:44:10;;;;;;;47.72;20.52;;;11.00;81.00;;;;;;5044605;28;20600;-76
2021/03/24 08:46:37;;;;;;;46.80;21.27;;;11.40;80.10;;;;;;5037911;28;20025;-76
2021/03/24 08:49:15;;;;;;;44.55;20.20;;;11.40;79.30;;;;;;5052553;28;20030;-76
2021/03/24 08:52:03;;;;;;;36.95;19.73;;;11.90;78.40;;;;;;5031885;28;20087;-76
2021/03/24 08:55:00;;;;;;;34.40;16.20;;;12.40;78.20;;;;;;5018720;28;20029;-76
2021/03/24 08:57:34;;;;;;;41.05;23.52;;;12.10;77.50;;;;;;5022017;28;20480;-76
2021/03/24 09:00:40;;;;;;;45.20;22.00;;;11.90;78.30;;;;;;5051639;28;20037;-76
2021/03/24 09:03:42;;;;;;;40.70;21.08;;;12.30;76.10;;;;;;5050856;28;20523;-76
2021/03/24 09:06:36;;;;;;;41.83;20.25;;;12.20;77.70;;;;;;5055737;28;20488;-77
2021/03/24 09:09:30;;;;;;;40.75;21.35;;;12.20;79.30;;;;;;5050414;28;20490;-76
2021/03/24 09:11:58;;;;;;;40.40;17.92;;;12.20;79.30;;;;;;5018920;28;20036;-76
2021/03/24 09:14:37;;;;;;;37.28;15.40;;;12.20;78.60;;;;;;5050259;28;20048;-76
2021/03/24 09:17:05;;;;;;;42.83;20.02;;;12.80;75.80;;;;;;5018857;28;20113;-76
2021/03/24 09:20:09;;;;;;;50.58;23.40;;;13.10;73.90;;;;;;5053549;28;20227;-77
2021/03/24 09:22:58;;;;;;;46.03;14.82;;;12.40;77.60;;;;;;4973656;28;20558;-77
2021/03/24 09:25:42;;;;;;;44.95;22.83;;;12.60;77.20;;;;;;4967775;28;20422;-76
2021/03/24 09:28:29;;;;;;;36.75;14.82;;;13.10;77.00;;;;;;5015056;28;20119;-77
2021/03/24 09:31:06;;;;;;;47.38;24.13;;;13.50;74.70;;;;;;5047250;28;20274;-77
2021/03/24 09:33:35;;;;;;;40.25;20.48;;;13.30;76.00;;;;;;5051213;28;20044;-77
2021/03/24 09:36:19;;;;;;;38.15;19.35;;;13.40;75.70;;;;;;5049379;28;20496;-76
2021/03/24 09:38:45;;;;;;;41.92;19.48;;;13.50;75.10;;;;;;5048236;28;20505;-77
2021/03/24 09:41:17;;;;;;;40.05;18.75;;;13.70;73.40;;;;;;5022718;28;20039;-76
2021/03/24 09:43:43;;;;;;;43.38;21.67;;;13.80;73.60;;;;;;5063816;28;20563;-77
2021/03/24 09:46:24;;;;;;;43.60;21.90;;;12.90;78.00;;;;;;5013108;28;20394;-77
2021/03/24 09:48:54;;;;;;;39.70;17.65;;;14.00;73.70;;;;;;5050013;28;20039;-77
2021/03/24 09:51:36;;;;;;;37.55;19.65;;;14.70;69.90;;;;;;5037293;28;20033;-77
2021/03/24 09:54:22;;;;;;;46.47;22.27;;;14.40;71.60;;;;;;5052717;28;20515;-77
2021/03/24 09:57:07;;;;;;;41.15;21.30;;;14.00;74.60;;;;;;5032347;28;20130;-77
2021/03/24 10:00:01;;;;;;;41.58;15.77;;;14.20;73.50;;;;;;5049772;28;20108;-77
2021/03/24 10:02:34;;;;;;;45.42;21.10;;;14.40;72.60;;;;;;5017673;28;20115;-77
2021/03/24 10:05:07;;;;;;;41.45;20.00;;;14.20;74.80;;;;;;5032790;28;20036;-77
2021/03/24 10:07:38;;;;;;;31.70;16.67;;;14.90;73.00;;;;;;5035385;28;20032;-77
2021/03/24 10:10:21;;;;;;;39.30;20.45;;;15.70;68.30;;;;;;5046957;28;20036;-77
2021/03/24 10:12:52;;;;;;;43.30;20.17;;;16.30;65.10;;;;;;5045234;28;20370;-77
2021/03/24 10:15:29;;;;;;;45.92;21.63;;;16.30;66.70;;;;;;5028399;28;20105;-77
2021/03/24 10:18:06;;;;;;;44.30;23.10;;;16.30;67.40;;;;;;5034469;28;20083;-77
2021/03/24 10:21:07;;;;;;;43.40;21.05;;;16.70;63.60;;;;;;5053934;28;20044;-77
2021/03/24 10:23:45;;;;;;;39.78;20.00;;;16.80;63.20;;;;;;5036564;28;20036;-77
2021/03/24 10:26:15;;;;;;;39.15;20.25;;;17.10;61.90;;;;;;5069960;28;20043;-77
2021/03/24 10:28:54;;;;;;;47.33;21.08;;;17.00;61.40;;;;;;5044018;28;20029;-77
2021/03/24 10:31:36;;;;;;;39.60;18.65;;;17.20;61.20;;;;;;5025400;28;20536;-77
2021/03/24 10:34:17;;;;;;;36.30;18.65;;;17.20;60.40;;;;;;5018847;28;20473;-77
2021/03/24 10:36:57;;;;;;;32.10;13.73;;;17.00;61.80;;;;;;5044611;28;20063;-77
2021/03/24 10:39:42;;;;;;;31.15;13.85;;;17.40;58.50;;;;;;5020519;28;20115;-77
2021/03/24 10:42:18;;;;;;;38.45;19.25;;;17.20;59.90;;;;;;5040153;28;20092;-77
2021/03/24 10:45:16;;;;;;;42.25;21.17;;;17.40;58.40;;;;;;5047332;28;20116;-78
2021/03/24 10:48:03;;;;;;;37.67;18.42;;;17.90;59.40;;;;;;5030583;28;20493;-78
2021/03/24 10:50:53;;;;;;;34.65;15.68;;;17.90;58.50;;;;;;5048899;28;20679;-78
2021/03/24 10:53:24;;;;;;;35.80;17.00;;;17.60;59.70;;;;;;5052920;28;20479;-78
2021/03/24 10:56:19;;;;;;;36.78;18.48;;;17.70;59.60;;;;;;5014599;28;20026;-77
2021/03/24 10:58:54;;;;;;;40.10;19.20;;;17.70;60.30;;;;;;5023755;28;20103;-77
2021/03/24 11:01:43;;;;;;;36.15;17.95;;;17.90;60.40;;;;;;5040838;28;20048;-77
2021/03/24 11:04:14;;;;;;;39.53;18.85;;;18.50;59.30;;;;;;5049466;28;20411;-77
2021/03/24 11:07:04;;;;;;;35.55;17.55;;;18.90;56.60;;;;;;5040334;28;20030;-77
2021/03/24 11:09:50;;;;;;;41.88;18.80;;;19.10;56.10;;;;;;5037637;28;20045;-77
2021/03/24 11:12:39;;;;;;;39.28;19.20;;;19.00;56.80;;;;;;5048831;28;20207;-78
2021/03/24 11:15:20;;;;;;;43.88;20.25;;;17.80;60.40;;;;;;5044348;28;20543;-77
2021/03/24 11:17:46;;;;;;;38.90;18.42;;;18.10;62.30;;;;;;5025115;28;20556;-77
2021/03/24 11:20:45;;;;;;;53.60;23.85;;;19.00;55.70;;;;;;5029364;28;20076;-77
2021/03/24 11:23:35;;;;;;;38.13;19.20;;;18.90;56.90;;;;;;5028261;28;20055;-77
2021/03/24 11:26:17;;;;;;;38.42;15.20;;;19.10;53.20;;;;;;5022670;28;20033;-77
2021/03/24 11:28:43;;;;;;;40.75;20.27;;;19.30;52.40;;;;;;5045197;28;20029;-77
2021/03/24 11:31:11;;;;;;;42.20;23.20;;;19.50;52.40;;;;;;5015176;28;20029;-77
2021/03/24 11:33:39;;;;;;;38.35;18.88;;;19.20;53.70;;;;;;5024019;28;20413;-77
2021/03/24 11:36:05;;;;;;;21.20;9.55;;;19.50;52.20;;;;;;5021849;28;20025;-77
2021/03/24 11:38:42;;;;;;;34.58;18.08;;;19.40;52.20;;;;;;5049654;28;20104;-77
2021/03/24 11:41:14;;;;;;;37.72;18.75;;;19.00;54.10;;;;;;5042889;28;20047;-77
2021/03/24 11:43:42;;;;;;;36.78;17.92;;;19.70;51.80;;;;;;5033954;28;20499;-77
2021/03/24 11:46:24;;;;;;;37.78;17.88;;;20.10;50.50;;;;;;5027568;28;20429;-76
2021/03/24 11:48:52;;;;;;;26.40;13.05;;;19.80;54.40;;;;;;5014582;28;20488;-76
2021/03/24 11:51:57;;;;;;;40.13;19.83;;;20.10;51.70;;;;;;5042590;28;20059;-76
2021/03/24 11:54:28;;;;;;;40.60;20.38;;;20.20;50.70;;;;;;5048387;28;20408;-76
2021/03/24 11:57:10;;;;;;;32.90;17.55;;;19.80;51.80;;;;;;5040687;28;20056;-77
2021/03/24 11:59:42;;;;;;;41.45;19.77;;;20.30;51.20;;;;;;5026197;28;20477;-77
2021/03/24 12:02:48;;;;;;;32.42;16.60;;;20.10;51.20;;;;;;5028693;28;20063;-76
2021/03/24 12:05:20;;;;;;;35.63;16.10;;;20.20;53.10;;;;;;5020122;28;20119;-76
2021/03/24 12:07:58;;;;;;;43.65;21.88;;;20.90;50.70;;;;;;5066025;28;20073;-77
2021/03/24 12:10:28;;;;;;;40.03;19.75;;;20.70;51.90;;;;;;5052174;28;20560;-76
2021/03/24 12:13:14;;;;;;;32.15;18.75;;;20.00;52.90;;;;;;5052551;28;20033;-76
2021/03/24 12:15:43;;;;;;;37.58;15.65;;;20.60;50.10;;;;;;5052419;28;20036;-76
2021/03/24 12:18:12;;;;;;;20.38;9.95;;;21.00;48.30;;;;;;5048285;28;20102;-76
2021/03/24 12:20:50;;;;;;;35.60;16.60;;;20.40;49.00;;;;;;5045614;28;20055;-76
2021/03/24 12:23:16;;;;;;;37.45;18.10;;;20.90;47.50;;;;;;5037254;28;20032;-75
2021/03/24 12:25:50;;;;;;;28.95;17.02;;;20.80;47.40;;;;;;5014653;28;20029;-76
2021/03/24 12:28:24;;;;;;;36.38;17.08;;;20.90;49.10;;;;;;5014069;28;20045;-75
2021/03/24 12:30:50;;;;;;;29.73;12.90;;;20.90;47.60;;;;;;5033887;28;20033;-75
2021/03/24 12:33:16;;;;;;;28.83;15.07;;;21.10;46.20;;;;;;5034453;28;20031;-76
2021/03/24 12:35:42;;;;;;;34.45;17.92;;;21.30;45.70;;;;;;5051728;28;20048;-76
2021/03/24 12:38:15;;;;;;;35.20;17.15;;;21.30;46.40;;;;;;5027896;28;20033;-76
2021/03/24 12:40:59;;;;;;;36.92;19.58;;;21.70;45.20;;;;;;5044528;28;20386;-75
2021/03/24 12:43:32;;;;;;;20.33;9.98;;;21.10;48.20;;;;;;5024274;28;20484;-75
2021/03/24 12:46:11;;;;;;;34.80;19.02;;;21.20;46.40;;;;;;5032170;28;20086;-76
2021/03/24 12:48:37;;;;;;;35.30;18.25;;;21.00;48.70;;;;;;5049532;28;20025;-76
2021/03/24 12:51:17;;;;;;;34.03;19.67;;;21.30;47.30;;;;;;5030232;28;20037;-76
2021/03/24 12:53:56;;;;;;;24.08;11.05;;;21.50;46.50;;;;;;5010910;28;20032;-76
2021/03/24 12:56:30;;;;;;;29.77;17.08;;;21.50;45.70;;;;;;5025022;28;20107;-75
2021/03/24 12:58:57;;;;;;;41.10;20.13;;;21.10;47.10;;;;;;5055880;28;20036;-76
2021/03/24 13:02:00;;;;;;;28.98;15.75;;;21.30;47.20;;;;;;5010538;28;20324;-75
2021/03/24 13:05:03;;;;;;;29.60;15.30;;;21.50;46.80;;;;;;5055834;28;20031;-76
2021/03/24 13:08:18;;;;;;;37.25;20.08;;;21.60;46.90;;;;;;5053574;28;20032;-76
2021/03/24 13:10:51;;;;;;;35.53;17.05;;;21.90;45.80;;;;;;4999690;28;20092;-76
2021/03/24 13:13:54;;;;;;;32.42;17.88;;;21.70;46.50;;;;;;4983165;28;20036;-76
2021/03/24 13:16:27;;;;;;;25.92;15.98;;;21.60;47.20;;;;;;5016882;28;20029;-78
2021/03/24 13:19:09;;;;;;;33.72;16.23;;;21.30;46.90;;;;;;5032991;28;20369;-76
2021/03/24 13:21:42;;;;;;;28.90;16.00;;;21.60;44.00;;;;;;5035700;28;20043;-76